Time;durP1;ratioP1;P1;durP2;ratioP2;P2;SDS_P1;SDS_P2;PMS_P1;PMS_P2;Temp;Humidity;BMP_temperature;BMP_pressure;BME280_temperature;BME280_humidity;BME280_pressure;Samples;Min_cycle;Max_cycle;Signal;HPM_P1;HPM_P2
2024/03/18 00:02:18;;;;;;;9.80;3.20;;;6.30;1.00;;;;;;5061084;28;20223;-78
2024/03/18 00:04:45;;;;;;;5.97;2.47;;;6.30;1.00;;;;;;5056586;28;20233;-80
2024/03/18 00:07:13;;;;;;;7.10;2.70;;;6.30;1.00;;;;;;5054324;28;20226;-79
2024/03/18 00:09:40;;;;;;;12.27;2.70;;;6.20;1.00;;;;;;5052799;28;20217;-79
2024/03/18 00:12:08;;;;;;;8.87;2.83;;;6.20;1.00;;;;;;5062567;28;20253;-80
2024/03/18 00:14:36;;;;;;;6.60;2.60;;;6.20;1.00;;;;;;5058038;28;20210;-81
2024/03/18 00:17:05;;;;;;;7.63;2.17;;;6.10;1.00;;;;;;5058832;28;20223;-81
2024/03/18 00:19:32;;;;;;;10.60;3.13;;;6.10;1.00;;;;;;5057053;28;20234;-80
2024/03/18 00:21:59;;;;;;;6.00;2.43;;;6.10;1.00;;;;;;5066209;28;20235;-81
2024/03/18 00:24:28;;;;;;;6.67;2.30;;;6.10;1.00;;;;;;5056693;28;20253;-81
2024/03/18 00:26:54;;;;;;;6.23;2.60;;;6.00;1.00;;;;;;5056796;28;20235;-80
2024/03/18 00:29:21;;;;;;;6.67;2.37;;;6.10;1.00;;;;;;5051967;28;20246;-81
2024/03/18 00:31:48;;;;;;;6.70;2.40;;;5.90;1.00;;;;;;5058679;28;20382;-81
2024/03/18 00:34:15;;;;;;;9.97;3.10;;;5.90;1.00;;;;;;5054948;28;20230;-81
2024/03/18 00:36:42;;;;;;;5.70;2.53;;;5.90;1.00;;;;;;5063021;28;20225;-81
2024/03/18 00:39:09;;;;;;;8.80;2.93;;;5.80;1.00;;;;;;5063353;28;20211;-80
2024/03/18 00:41:48;;;;;;;11.17;3.43;;;5.70;1.00;;;;;;5060236;28;20577;-79
2024/03/18 00:44:15;;;;;;;7.23;2.60;;;5.70;1.00;;;;;;5055965;28;20207;-81
2024/03/18 00:46:43;;;;;;;5.40;2.80;;;5.70;1.00;;;;;;5060419;28;20203;-81
2024/03/18 00:49:11;;;;;;;7.43;2.50;;;5.60;1.00;;;;;;5054519;28;20199;-81
2024/03/18 00:51:38;;;;;;;6.53;2.40;;;5.50;1.00;;;;;;5051446;28;20315;-81
2024/03/18 00:54:05;;;;;;;6.57;2.87;;;5.40;1.00;;;;;;5056363;28;20203;-80
2024/03/18 00:56:33;;;;;;;4.27;2.30;;;5.30;1.00;;;;;;5053610;28;20223;-80
2024/03/18 00:59:01;;;;;;;8.40;2.80;;;5.30;54.70;;;;;;5055482;28;20266;-80
2024/03/18 01:01:28;;;;;;;8.40;2.93;;;5.20;99.90;;;;;;5053962;28;20288;-79
2024/03/18 01:03:56;;;;;;;12.33;2.73;;;5.30;99.90;;;;;;5054329;28;20256;-79
2024/03/18 01:06:24;;;;;;;7.67;2.70;;;5.20;99.90;;;;;;5060565;28;20221;-80
2024/03/18 01:08:51;;;;;;;5.03;3.03;;;5.30;99.90;;;;;;5060585;28;20724;-81
2024/03/18 01:11:19;;;;;;;5.70;2.50;;;5.10;99.90;;;;;;5065985;28;20242;-80
2024/03/18 01:13:47;;;;;;;5.13;2.27;;;5.00;99.90;;;;;;5058936;28;20600;-81
2024/03/18 01:16:15;;;;;;;6.00;2.50;;;4.80;1.00;;;;;;5060758;28;20214;-81
2024/03/18 01:18:43;;;;;;;6.37;3.23;;;4.60;1.00;;;;;;5065170;28;20659;-81
2024/03/18 01:21:11;;;;;;;6.87;2.67;;;4.50;1.00;;;;;;5064341;28;20241;-80
2024/03/18 01:23:38;;;;;;;6.83;3.03;;;4.40;99.90;;;;;;5061252;28;20219;-81
2024/03/18 01:26:05;;;;;;;8.43;2.67;;;4.20;99.90;;;;;;5067077;28;20207;-81
2024/03/18 01:28:32;;;;;;;9.40;3.07;;;4.10;1.00;;;;;;5064156;28;20221;-80
2024/03/18 01:31:03;;;;;;;6.60;2.40;;;4.10;1.00;;;;;;5056320;28;21081;-79
2024/03/18 01:33:32;;;;;;;5.43;2.70;;;4.00;1.00;;;;;;5065182;28;20597;-81
2024/03/18 01:35:59;;;;;;;8.30;3.00;;;4.40;99.90;;;;;;5056496;28;20279;-81
2024/03/18 01:38:26;;;;;;;6.90;3.03;;;4.60;1.00;;;;;;5070290;28;20253;-78
2024/03/18 01:40:54;;;;;;;6.33;2.90;;;4.60;1.00;;;;;;5058774;28;20253;-79
2024/03/18 01:43:21;;;;;;;7.53;3.10;;;4.50;1.00;;;;;;5070058;28;20203;-81
2024/03/18 01:45:48;;;;;;;5.93;2.70;;;4.40;99.90;;;;;;5061632;28;20207;-79
2024/03/18 01:48:16;;;;;;;8.07;2.80;;;4.40;99.90;;;;;;5052699;28;20238;-80
2024/03/18 01:50:46;;;;;;;10.33;3.20;;;4.30;1.00;;;;;;5056079;28;20303;-81
2024/03/18 01:53:14;;;;;;;8.87;3.63;;;4.20;1.00;;;;;;5057822;28;20688;-79
2024/03/18 01:55:42;;;;;;;8.40;2.73;;;4.30;1.00;;;;;;5051074;28;20555;-81
2024/03/18 01:58:09;;;;;;;11.87;3.07;;;4.50;99.90;;;;;;5056776;28;20673;-80
2024/03/18 02:00:41;;;;;;;6.63;2.77;;;4.60;99.90;;;;;;5055174;28;20221;-79
2024/03/18 02:03:09;;;;;;;13.10;3.00;;;4.80;43.60;;;;;;5062249;28;20658;-80
2024/03/18 02:05:36;;;;;;;9.17;3.13;;;4.60;1.00;;;;;;5053543;28;20199;-80
2024/03/18 02:08:06;;;;;;;6.73;2.63;;;4.60;99.90;;;;;;5057411;28;20209;-80
2024/03/18 02:10:33;;;;;;;6.77;3.00;;;4.50;99.90;;;;;;5055744;28;20242;-79
2024/03/18 02:13:01;;;;;;;10.23;3.23;;;4.70;1.00;;;;;;5057371;28;20234;-79
2024/03/18 02:15:28;;;;;;;9.43;3.20;;;4.90;1.00;;;;;;5052779;28;20234;-80
2024/03/18 02:17:55;;;;;;;8.00;2.50;;;4.90;1.00;;;;;;5061596;28;20265;-79
2024/03/18 02:20:23;;;;;;;7.50;3.17;;;4.90;1.00;;;;;;5054747;28;20571;-81
2024/03/18 02:22:51;;;;;;;7.90;3.13;;;5.00;1.00;;;;;;5058082;28;20266;-82
2024/03/18 02:25:19;;;;;;;12.57;3.40;;;5.00;99.90;;;;;;5061153;28;20199;-81
2024/03/18 02:27:46;;;;;;;12.03;3.20;;;5.10;99.90;;;;;;5058554;28;20235;-80
2024/03/18 02:30:14;;;;;;;6.83;2.70;;;4.90;1.00;;;;;;5056445;28;20200;-81
2024/03/18 02:32:42;;;;;;;7.40;2.70;;;4.80;1.00;;;;;;5059444;28;20238;-79
2024/03/18 02:35:11;;;;;;;8.63;2.93;;;4.80;1.00;;;;;;5055734;28;20219;-80
2024/03/18 02:37:39;;;;;;;7.90;2.73;;;4.80;1.00;;;;;;5057210;28;20273;-80
2024/03/18 02:40:09;;;;;;;10.93;2.70;;;4.70;1.00;;;;;;5055350;28;20297;-80
2024/03/18 02:42:37;;;;;;;10.93;3.40;;;4.70;1.00;;;;;;5055629;28;20218;-80
2024/03/18 02:45:08;;;;;;;7.63;2.80;;;4.60;1.00;;;;;;5063863;28;20295;-81
2024/03/18 02:47:35;;;;;;;11.33;3.40;;;4.70;1.00;;;;;;5058136;28;20199;-81
2024/03/18 02:50:03;;;;;;;7.33;2.87;;;4.80;99.90;;;;;;5057617;28;20698;-81
2024/03/18 02:52:30;;;;;;;6.60;2.50;;;4.70;99.90;;;;;;5053275;28;20301;-79
2024/03/18 02:54:57;;;;;;;8.63;2.70;;;4.70;1.00;;;;;;5054505;28;20658;-79
2024/03/18 02:57:25;;;;;;;6.43;2.67;;;4.50;1.00;;;;;;5047753;28;20226;-81
2024/03/18 02:59:52;;;;;;;6.43;2.50;;;4.40;1.00;;;;;;5056979;28;20234;-80
2024/03/18 03:02:19;;;;;;;7.00;2.60;;;4.10;1.00;;;;;;5059355;28;20242;-79
2024/03/18 03:04:45;;;;;;;8.23;2.40;;;4.00;1.00;;;;;;5054718;28;20211;-79
2024/03/18 03:07:12;;;;;;;6.77;2.60;;;3.90;92.50;;;;;;5048331;28;20203;-81
2024/03/18 03:09:39;;;;;;;7.00;2.67;;;3.80;99.90;;;;;;5051790;28;20297;-81
2024/03/18 03:12:08;;;;;;;6.57;2.60;;;3.80;99.90;;;;;;5058062;28;20231;-80
2024/03/18 03:14:37;;;;;;;8.50;3.37;;;3.80;99.90;;;;;;5054521;28;20207;-80
2024/03/18 03:17:04;;;;;;;6.17;2.57;;;3.70;99.90;;;;;;5056220;28;20226;-80
2024/03/18 03:19:31;;;;;;;4.53;2.63;;;3.40;1.00;;;;;;5053155;28;20242;-81
2024/03/18 03:21:58;;;;;;;8.20;2.90;;;3.30;1.00;;;;;;5060795;28;20231;-79
2024/03/18 03:24:26;;;;;;;6.33;2.40;;;3.30;1.00;;;;;;5052442;28;20661;-79
2024/03/18 03:26:53;;;;;;;9.93;2.93;;;3.20;1.00;;;;;;5061174;28;20576;-79
2024/03/18 03:29:19;;;;;;;12.83;2.83;;;3.20;1.00;;;;;;5060032;28;20257;-79
2024/03/18 03:31:48;;;;;;;7.73;2.53;;;3.40;1.00;;;;;;5054910;28;20258;-79
2024/03/18 03:34:15;;;;;;;7.90;2.73;;;3.40;1.00;;;;;;5061356;28;20207;-81
2024/03/18 03:36:44;;;;;;;7.97;2.80;;;3.30;1.00;;;;;;5055263;28;20209;-80
2024/03/18 03:39:11;;;;;;;9.20;2.80;;;3.30;27.50;;;;;;5055948;28;20734;-81
2024/03/18 03:41:38;;;;;;;9.00;2.57;;;3.40;1.00;;;;;;5054989;28;20281;-79
2024/03/18 03:44:05;;;;;;;11.43;2.53;;;3.50;1.00;;;;;;5057380;28;20309;-79
2024/03/18 03:46:32;;;;;;;6.00;2.67;;;3.50;1.00;;;;;;5054211;28;20290;-79
2024/03/18 03:49:03;;;;;;;11.57;2.40;;;3.60;1.00;;;;;;5068234;28;20203;-78
2024/03/18 03:51:29;;;;;;;7.17;2.47;;;3.70;1.00;;;;;;5051867;28;20289;-80
2024/03/18 03:53:57;;;;;;;7.10;2.60;;;3.40;1.00;;;;;;5041730;28;20207;-80
2024/03/18 03:56:24;;;;;;;4.53;2.33;;;3.20;1.00;;;;;;5044085;28;20210;-79
2024/03/18 03:58:52;;;;;;;5.27;2.53;;;3.10;99.90;;;;;;5052782;28;20227;-80
2024/03/18 04:01:21;;;;;;;6.90;2.80;;;3.10;99.90;;;;;;5053846;28;20254;-79
2024/03/18 04:03:47;;;;;;;7.17;2.97;;;3.10;99.90;;;;;;5053452;28;20229;-80
2024/03/18 04:06:16;;;;;;;11.23;2.80;;;3.00;99.90;;;;;;5055726;28;20203;-78
2024/03/18 04:08:43;;;;;;;10.07;2.80;;;3.00;1.00;;;;;;5052063;28;20243;-80
2024/03/18 04:11:10;;;;;;;7.50;3.10;;;3.10;99.90;;;;;;5053048;28;20693;-78
2024/03/18 04:13:37;;;;;;;9.47;2.77;;;3.20;99.90;;;;;;5055847;28;20278;-79
2024/03/18 04:16:04;;;;;;;4.97;2.50;;;3.20;99.90;;;;;;5059369;28;20203;-79
2024/03/18 04:18:31;;;;;;;8.60;2.93;;;3.00;99.90;;;;;;5059777;28;20280;-78
2024/03/18 04:20:59;;;;;;;8.00;4.00;;;3.00;99.90;;;;;;5055114;28;20261;-80
2024/03/18 04:23:29;;;;;;;8.03;2.70;;;2.90;1.00;;;;;;5047987;28;20214;-78
2024/03/18 04:25:56;;;;;;;5.43;2.70;;;2.80;1.00;;;;;;5061226;28;20206;-77
2024/03/18 04:28:23;;;;;;;6.07;2.70;;;2.80;1.00;;;;;;5053725;28;20194;-80
2024/03/18 04:30:50;;;;;;;6.80;2.50;;;3.00;1.00;;;;;;5060905;28;20234;-79
2024/03/18 04:33:17;;;;;;;5.53;2.97;;;3.00;99.90;;;;;;5061168;28;20644;-80
2024/03/18 04:35:45;;;;;;;18.50;15.43;;;3.00;99.90;;;;;;5051575;28;20207;-79
2024/03/18 04:38:11;;;;;;;7.03;3.53;;;3.00;1.00;;;;;;5068689;28;20318;-78
2024/03/18 04:40:39;;;;;;;7.50;2.67;;;3.10;99.90;;;;;;5068125;28;20669;-79
2024/03/18 04:43:06;;;;;;;7.70;3.00;;;3.10;99.90;;;;;;5068365;28;20206;-79
2024/03/18 04:45:33;;;;;;;7.17;2.57;;;3.20;99.90;;;;;;5066940;28;20225;-79
2024/03/18 04:48:00;;;;;;;11.83;3.83;;;3.30;1.00;;;;;;5073951;28;20217;-79
2024/03/18 04:50:27;;;;;;;7.40;2.70;;;3.30;1.00;;;;;;5062397;28;20210;-79
2024/03/18 04:52:55;;;;;;;6.97;2.43;;;3.30;1.00;;;;;;5061582;28;20374;-79
2024/03/18 04:55:22;;;;;;;8.17;2.70;;;3.30;1.00;;;;;;5045211;28;20265;-80
2024/03/18 04:57:55;;;;;;;7.43;2.23;;;3.20;1.00;;;;;;5044619;28;20254;-79
2024/03/18 05:00:25;;;;;;;5.40;2.40;;;3.10;1.00;;;;;;5053870;28;20300;-79
2024/03/18 05:02:52;;;;;;;7.37;2.80;;;3.00;99.90;;;;;;5052002;28;20281;-80
2024/03/18 05:05:20;;;;;;;7.10;2.70;;;2.90;1.00;;;;;;5052032;28;20266;-78
2024/03/18 05:07:48;;;;;;;7.50;2.70;;;2.70;1.00;;;;;;5047257;28;20204;-78
2024/03/18 05:10:18;;;;;;;9.43;2.83;;;2.80;1.00;;;;;;5057653;28;20207;-78
2024/03/18 05:12:45;;;;;;;7.10;2.93;;;2.80;1.00;;;;;;5051696;28;20619;-79
2024/03/18 05:15:13;;;;;;;11.87;3.87;;;2.80;1.00;;;;;;5055664;28;20203;-79
2024/03/18 05:17:40;;;;;;;11.97;3.03;;;3.00;1.00;;;;;;5058863;28;20291;-78
2024/03/18 05:20:11;;;;;;;7.93;2.90;;;3.10;99.90;;;;;;5061571;28;20203;-79
2024/03/18 05:22:39;;;;;;;12.23;3.13;;;3.20;99.90;;;;;;5060719;28;20226;-78
2024/03/18 05:25:09;;;;;;;9.27;3.20;;;3.30;99.90;;;;;;5053070;28;20593;-79
2024/03/18 05:27:37;;;;;;;7.37;2.73;;;3.30;62.70;;;;;;5059004;28;20210;-78
2024/03/18 05:30:05;;;;;;;6.90;2.37;;;3.40;1.00;;;;;;5064703;28;20704;-78
2024/03/18 05:32:35;;;;;;;12.20;4.50;;;3.40;99.90;;;;;;5063913;28;20232;-80
2024/03/18 05:35:02;;;;;;;10.80;2.73;;;3.50;1.00;;;;;;5064377;28;20215;-79
2024/03/18 05:37:29;;;;;;;8.43;2.80;;;3.50;1.00;;;;;;5063218;28;20207;-79
2024/03/18 05:39:56;;;;;;;5.63;2.87;;;3.50;1.00;;;;;;5069761;28;20472;-79
2024/03/18 05:42:23;;;;;;;7.00;2.63;;;3.60;1.00;;;;;;5066891;28;20760;-79
2024/03/18 05:44:50;;;;;;;10.40;3.30;;;3.70;1.00;;;;;;5066140;28;20238;-79
2024/03/18 05:47:17;;;;;;;10.53;3.10;;;3.80;1.00;;;;;;5066836;28;20230;-79
2024/03/18 05:49:46;;;;;;;9.00;3.23;;;3.80;1.00;;;;;;5077548;28;20237;-78
2024/03/18 05:52:13;;;;;;;6.93;2.87;;;3.90;1.00;;;;;;5058544;28;20262;-79
2024/03/18 05:54:40;;;;;;;6.43;3.27;;;3.90;1.00;;;;;;5060546;28;20614;-78
2024/03/18 05:57:07;;;;;;;7.27;2.70;;;4.00;1.00;;;;;;5052717;28;20782;-80
2024/03/18 05:59:34;;;;;;;10.77;3.20;;;4.10;99.90;;;;;;5043428;28;20693;-80
2024/03/18 06:02:01;;;;;;;9.83;2.70;;;4.20;99.90;;;;;;5045207;28;20255;-79
2024/03/18 06:04:27;;;;;;;10.93;3.40;;;4.30;99.90;;;;;;5049883;28;20238;-80
2024/03/18 06:06:59;;;;;;;9.60;3.23;;;4.50;99.90;;;;;;5050381;28;20625;-79
2024/03/18 06:09:26;;;;;;;8.33;2.80;;;4.80;1.00;;;;;;5051535;28;20275;-79
2024/03/18 06:11:53;;;;;;;10.63;3.10;;;4.80;1.00;;;;;;5053943;28;20259;-78
2024/03/18 06:14:20;;;;;;;6.57;3.20;;;4.90;1.00;;;;;;5054261;28;20299;-78
2024/03/18 06:16:47;;;;;;;9.87;3.03;;;5.00;1.00;;;;;;5050748;28;20203;-78
2024/03/18 06:19:15;;;;;;;7.93;2.90;;;5.10;1.00;;;;;;5056641;28;20281;-79
2024/03/18 06:21:45;;;;;;;12.03;4.93;;;4.90;1.00;;;;;;5057398;28;20223;-80
2024/03/18 06:24:20;;;;;;;7.40;2.70;;;4.90;1.00;;;;;;5054050;28;20401;-82
2024/03/18 06:26:46;;;;;;;7.30;2.67;;;4.80;1.00;;;;;;5050716;28;20216;-78
2024/03/18 06:29:13;;;;;;;6.67;2.73;;;4.70;1.00;;;;;;5056855;28;20688;-79
2024/03/18 06:31:40;;;;;;;7.97;2.60;;;4.70;1.00;;;;;;5067941;28;20375;-78
2024/03/18 06:34:07;;;;;;;7.97;3.17;;;4.70;1.00;;;;;;5066341;28;20235;-78
2024/03/18 06:36:35;;;;;;;8.20;3.10;;;4.80;99.90;;;;;;5056813;28;20656;-79
2024/03/18 06:39:03;;;;;;;10.83;3.37;;;4.80;1.00;;;;;;5056799;28;20222;-79
2024/03/18 06:41:31;;;;;;;5.07;2.90;;;4.80;99.90;;;;;;5066751;28;20226;-80
2024/03/18 06:43:59;;;;;;;6.77;3.03;;;4.80;99.90;;;;;;5072235;28;20667;-79
2024/03/18 06:46:26;;;;;;;4.17;2.87;;;4.80;99.90;;;;;;5058715;28;20312;-78
2024/03/18 06:48:53;;;;;;;7.00;2.80;;;4.80;99.90;;;;;;5070042;28;20234;-78
2024/03/18 06:51:19;;;;;;;9.87;4.83;;;4.80;99.90;;;;;;5065131;28;20238;-79
2024/03/18 06:53:46;;;;;;;6.17;3.00;;;4.80;99.90;;;;;;5073170;28;20249;-80
2024/03/18 06:56:13;;;;;;;6.77;3.20;;;4.80;99.90;;;;;;5064964;28;20232;-79
2024/03/18 06:58:42;;;;;;;8.03;3.10;;;4.80;99.90;;;;;;5060312;28;20707;-79
2024/03/18 07:01:10;;;;;;;6.60;3.10;;;4.90;99.90;;;;;;5045320;28;20277;-77
2024/03/18 07:03:39;;;;;;;11.53;3.07;;;5.00;99.90;;;;;;5060409;28;20204;-79
2024/03/18 07:06:06;;;;;;;6.00;2.97;;;5.00;99.90;;;;;;5049001;28;20208;-78
2024/03/18 07:08:33;;;;;;;6.00;3.07;;;5.00;99.90;;;;;;5052673;28;20258;-79
2024/03/18 07:11:00;;;;;;;5.33;3.17;;;5.00;99.90;;;;;;5048201;28;20231;-79
2024/03/18 07:13:27;;;;;;;6.57;3.43;;;5.00;99.90;;;;;;5050052;28;20274;-78
2024/03/18 07:15:58;;;;;;;9.87;3.70;;;5.00;99.90;;;;;;5051752;28;20254;-79
2024/03/18 07:18:25;;;;;;;7.90;3.60;;;5.00;99.90;;;;;;5058552;28;20308;-78
2024/03/18 07:20:54;;;;;;;9.23;3.47;;;5.00;99.90;;;;;;5055843;28;20289;-80
2024/03/18 07:23:21;;;;;;;6.03;3.07;;;5.20;99.90;;;;;;5063215;28;20644;-79
2024/03/18 07:25:49;;;;;;;7.03;3.13;;;5.10;99.90;;;;;;5053470;28;20234;-80
2024/03/18 07:28:16;;;;;;;10.07;3.80;;;5.10;1.00;;;;;;5057254;28;20203;-80
2024/03/18 07:30:46;;;;;;;5.63;3.00;;;5.10;99.90;;;;;;5063649;28;20210;-78
2024/03/18 07:33:14;;;;;;;6.47;3.53;;;5.10;1.00;;;;;;5061496;28;20211;-78
2024/03/18 07:35:41;;;;;;;7.03;3.30;;;5.10;99.90;;;;;;5057837;28;20203;-79
2024/03/18 07:38:08;;;;;;;12.57;4.00;;;5.10;99.90;;;;;;5053982;28;20207;-79
2024/03/18 07:40:35;;;;;;;6.07;3.90;;;5.20;1.00;;;;;;5070063;28;20206;-79
2024/03/18 07:43:02;;;;;;;6.73;3.60;;;5.20;1.00;;;;;;5058090;28;20213;-79
2024/03/18 07:45:30;;;;;;;13.77;4.00;;;5.30;1.00;;;;;;5069013;28;20234;-78
2024/03/18 07:48:04;;;;;;;7.43;3.50;;;5.20;1.00;;;;;;5072999;28;20206;-79
2024/03/18 07:50:33;;;;;;;9.17;3.30;;;5.20;1.00;;;;;;5065795;28;20222;-79
2024/03/18 07:52:59;;;;;;;10.80;3.87;;;5.20;2.60;;;;;;5064516;28;20211;-79
2024/03/18 07:55:26;;;;;;;10.07;4.10;;;5.30;1.00;;;;;;5065132;28;20571;-80
2024/03/18 07:57:53;;;;;;;8.00;3.67;;;5.40;1.00;;;;;;5067702;28;20235;-80
2024/03/18 08:00:21;;;;;;;7.80;4.07;;;5.40;1.00;;;;;;5059170;28;20280;-79
2024/03/18 08:02:48;;;;;;;11.20;3.83;;;5.40;95.00;;;;;;5055313;28;20761;-79
2024/03/18 08:05:15;;;;;;;8.30;4.27;;;5.30;73.00;;;;;;5046694;28;20212;-79
2024/03/18 08:07:43;;;;;;;9.20;4.07;;;5.70;1.00;;;;;;5050404;28;20208;-80
2024/03/18 08:10:11;;;;;;;9.50;4.23;;;5.40;41.20;;;;;;5049311;28;20231;-78
2024/03/18 08:12:38;;;;;;;8.93;4.17;;;5.50;1.00;;;;;;5051033;28;20688;-79
2024/03/18 08:15:06;;;;;;;9.17;4.10;;;5.50;1.00;;;;;;5057184;28;20207;-78
2024/03/18 08:17:32;;;;;;;7.80;3.67;;;5.60;1.00;;;;;;5053695;28;20565;-78
2024/03/18 08:19:59;;;;;;;8.00;3.77;;;5.70;1.00;;;;;;5051005;28;20224;-79
2024/03/18 08:22:26;;;;;;;7.57;4.53;;;5.60;1.00;;;;;;5048295;28;20254;-79
2024/03/18 08:24:54;;;;;;;9.80;4.10;;;5.70;1.00;;;;;;5054369;28;20211;-78
2024/03/18 08:27:21;;;;;;;16.00;4.73;;;5.90;1.00;;;;;;5059889;28;20237;-79
2024/03/18 08:29:48;;;;;;;8.20;4.13;;;5.90;1.00;;;;;;5059112;28;20238;-79
2024/03/18 08:32:15;;;;;;;8.27;4.03;;;6.10;1.00;;;;;;5059507;28;20246;-79
2024/03/18 08:34:43;;;;;;;11.00;4.53;;;6.20;1.00;;;;;;5066712;28;20209;-79
2024/03/18 08:37:10;;;;;;;11.80;4.50;;;6.10;1.00;;;;;;5053353;28;20251;-79
2024/03/18 08:39:37;;;;;;;10.23;3.87;;;6.30;1.00;;;;;;5068171;28;20242;-80
2024/03/18 08:42:06;;;;;;;9.97;4.60;;;6.30;99.90;;;;;;5059055;28;20227;-80
2024/03/18 08:44:33;;;;;;;12.00;5.20;;;6.30;1.00;;;;;;5072063;28;20298;-78
2024/03/18 08:47:00;;;;;;;10.77;4.63;;;6.30;99.90;;;;;;5064250;28;20266;-78
2024/03/18 08:49:26;;;;;;;13.03;4.40;;;6.40;99.90;;;;;;5057122;28;20727;-80
2024/03/18 08:51:54;;;;;;;9.87;4.37;;;6.40;99.90;;;;;;5065955;28;20269;-79
2024/03/18 08:54:21;;;;;;;9.90;4.60;;;6.50;99.90;;;;;;5061481;28;21539;-79
2024/03/18 08:56:48;;;;;;;11.77;4.60;;;6.50;99.90;;;;;;5055137;28;20669;-80
2024/03/18 08:59:16;;;;;;;8.13;4.20;;;6.60;99.90;;;;;;5056918;28;20630;-77
2024/03/18 09:01:43;;;;;;;10.63;4.57;;;6.60;88.50;;;;;;5056380;28;20223;-79
2024/03/18 09:04:10;;;;;;;10.33;4.57;;;6.70;58.50;;;;;;5060862;28;20276;-79
2024/03/18 09:06:37;;;;;;;10.20;4.77;;;6.90;99.90;;;;;;5055545;28;20677;-79
2024/03/18 09:09:06;;;;;;;8.83;4.53;;;6.80;1.00;;;;;;5046555;28;20207;-79
2024/03/18 09:11:33;;;;;;;8.83;4.53;;;7.00;99.90;;;;;;5052964;28;20284;-78
2024/03/18 09:13:59;;;;;;;7.83;4.10;;;6.90;1.00;;;;;;5051054;28;20207;-79
2024/03/18 09:16:28;;;;;;;11.63;4.90;;;6.90;1.00;;;;;;5052564;28;20454;-78
2024/03/18 09:18:55;;;;;;;10.23;5.63;;;7.10;1.00;;;;;;5051157;28;20260;-78
2024/03/18 09:21:22;;;;;;;8.83;4.67;;;7.00;1.00;;;;;;5059617;28;20281;-78
2024/03/18 09:23:49;;;;;;;11.70;4.63;;;7.20;1.00;;;;;;5055799;28;20305;-78
2024/03/18 09:26:16;;;;;;;13.37;4.67;;;7.30;1.00;;;;;;5058563;28;20204;-80
2024/03/18 09:28:44;;;;;;;11.27;4.60;;;7.30;1.00;;;;;;5061629;28;20390;-78
2024/03/18 09:31:11;;;;;;;10.83;5.30;;;7.40;1.00;;;;;;5062276;28;20289;-79
2024/03/18 09:33:39;;;;;;;9.37;5.10;;;7.60;1.00;;;;;;5070559;28;20198;-80
2024/03/18 09:36:07;;;;;;;11.63;4.97;;;7.70;1.00;;;;;;5067134;28;20242;-80
2024/03/18 09:38:34;;;;;;;10.37;4.80;;;7.90;1.00;;;;;;5074588;28;20340;-79
2024/03/18 09:41:04;;;;;;;13.20;5.30;;;7.90;1.00;;;;;;5065926;28;20640;-78
2024/03/18 09:43:33;;;;;;;8.67;4.87;;;7.70;1.00;;;;;;5074836;28;20672;-79
2024/03/18 09:46:01;;;;;;;8.67;4.80;;;7.70;1.00;;;;;;5066457;28;20231;-78
2024/03/18 09:48:29;;;;;;;8.50;4.57;;;7.70;1.00;;;;;;5065599;28;20218;-78
2024/03/18 09:50:59;;;;;;;11.73;5.17;;;7.70;1.00;;;;;;5067170;28;20218;-79
2024/03/18 09:53:26;;;;;;;10.63;5.60;;;7.70;1.00;;;;;;5069641;28;20246;-80
2024/03/18 09:55:53;;;;;;;9.90;4.90;;;7.90;1.00;;;;;;5071380;28;20274;-79
2024/03/18 09:58:20;;;;;;;11.57;4.87;;;8.00;1.00;;;;;;5066635;28;20210;-79
2024/03/18 10:00:47;;;;;;;8.57;5.13;;;8.10;1.00;;;;;;5075190;28;20222;-79
2024/03/18 10:03:17;;;;;;;11.60;5.13;;;8.00;1.00;;;;;;5068160;28;20237;-80
2024/03/18 10:05:45;;;;;;;10.33;4.60;;;8.10;1.00;;;;;;5066200;28;20546;-80
2024/03/18 10:08:15;;;;;;;10.77;4.73;;;8.20;1.00;;;;;;5072065;28;20265;-80
2024/03/18 10:10:45;;;;;;;8.90;5.23;;;8.20;1.00;;;;;;5063842;28;20202;-80
2024/03/18 10:13:12;;;;;;;10.93;5.20;;;8.20;1.00;;;;;;5065412;28;20209;-80
2024/03/18 10:15:39;;;;;;;9.03;5.67;;;8.20;1.00;;;;;;5054056;28;20215;-78
2024/03/18 10:18:10;;;;;;;11.83;5.80;;;8.30;1.00;;;;;;5050031;28;20200;-79
2024/03/18 10:20:38;;;;;;;10.73;5.93;;;8.30;1.00;;;;;;5058317;28;20218;-77
2024/03/18 10:23:06;;;;;;;11.57;4.87;;;8.40;1.00;;;;;;5052072;28;20253;-78
2024/03/18 10:25:34;;;;;;;12.03;5.70;;;8.40;1.00;;;;;;5064480;28;20217;-78
2024/03/18 10:28:05;;;;;;;8.57;5.30;;;8.60;1.00;;;;;;5058373;28;20261;-77
2024/03/18 10:30:34;;;;;;;8.60;5.33;;;8.80;1.00;;;;;;5062990;28;20198;-79
2024/03/18 10:33:04;;;;;;;10.20;5.47;;;8.70;1.00;;;;;;5056584;28;20207;-79
2024/03/18 10:35:34;;;;;;;12.97;5.20;;;8.90;1.00;;;;;;5066786;28;20237;-80
2024/03/18 10:38:02;;;;;;;7.90;5.57;;;8.80;99.90;;;;;;5056801;28;20230;-79
2024/03/18 10:40:35;;;;;;;9.10;5.50;;;9.00;1.00;;;;;;5062813;28;20270;-79
2024/03/18 10:43:04;;;;;;;12.07;5.70;;;9.10;99.90;;;;;;5066074;28;20268;-80
2024/03/18 10:45:32;;;;;;;10.30;5.57;;;9.30;99.90;;;;;;5068696;28;20241;-79
2024/03/18 10:48:04;;;;;;;12.33;5.67;;;9.50;99.90;;;;;;5067926;28;20270;-80
2024/03/18 10:50:32;;;;;;;13.40;5.97;;;9.70;99.90;;;;;;5055214;28;20210;-79
2024/03/18 10:52:59;;;;;;;11.50;5.20;;;9.60;99.90;;;;;;5067084;28;20602;-78
2024/03/18 10:55:29;;;;;;;12.63;6.50;;;9.80;99.90;;;;;;5048093;28;20210;-79
2024/03/18 10:57:59;;;;;;;12.40;6.03;;;10.00;99.90;;;;;;5062116;28;20229;-79
2024/03/18 11:00:27;;;;;;;11.63;5.80;;;10.20;99.90;;;;;;5058799;28;20223;-78
2024/03/18 11:02:56;;;;;;;12.53;6.13;;;10.50;99.90;;;;;;5063687;28;20222;-79
2024/03/18 11:05:26;;;;;;;10.03;5.77;;;10.50;94.30;;;;;;5060353;28;20202;-80
2024/03/18 11:08:01;;;;;;;9.77;5.53;;;10.40;84.30;;;;;;5054302;28;20207;-79
2024/03/18 11:10:31;;;;;;;10.37;5.83;;;10.30;36.70;;;;;;5067050;28;20197;-79
2024/03/18 11:13:09;;;;;;;12.20;6.40;;;10.60;67.80;;;;;;5070291;28;20676;-80
2024/03/18 11:15:39;;;;;;;11.70;6.03;;;10.90;99.90;;;;;;5060522;28;20241;-79
2024/03/18 11:18:07;;;;;;;8.50;5.63;;;10.80;99.90;;;;;;5058707;28;20227;-78
2024/03/18 11:20:46;;;;;;;10.67;6.40;;;10.80;90.90;;;;;;5057468;28;20637;-80
2024/03/18 11:23:17;;;;;;;11.03;6.67;;;11.10;99.90;;;;;;5058360;28;20212;-79
2024/03/18 11:25:45;;;;;;;11.73;5.90;;;10.90;1.00;;;;;;5053971;28;20673;-79
2024/03/18 11:28:13;;;;;;;12.17;6.97;;;10.60;1.00;;;;;;5054394;28;20235;-79
2024/03/18 11:30:44;;;;;;;11.53;6.47;;;10.70;1.00;;;;;;5053314;28;20217;-79
2024/03/18 11:33:11;;;;;;;12.33;7.17;;;11.00;1.00;;;;;;5054726;28;20731;-79
2024/03/18 11:35:39;;;;;;;13.47;7.17;;;10.90;1.00;;;;;;5067613;28;20720;-79
2024/03/18 11:38:07;;;;;;;12.70;6.43;;;10.80;1.00;;;;;;5050246;28;20660;-78
2024/03/18 11:40:39;;;;;;;13.43;6.33;;;10.80;1.00;;;;;;5062314;28;20230;-78
2024/03/18 11:43:07;;;;;;;12.30;6.50;;;11.00;1.00;;;;;;5063860;28;20209;-78
2024/03/18 11:45:36;;;;;;;13.77;7.23;;;10.90;1.00;;;;;;5070206;28;20653;-79
2024/03/18 11:48:05;;;;;;;12.27;5.97;;;11.10;1.00;;;;;;5062905;28;20214;-79
2024/03/18 11:50:33;;;;;;;11.43;6.57;;;11.10;1.00;;;;;;5063220;28;20606;-82
2024/03/18 11:53:01;;;;;;;13.20;6.87;;;11.30;1.00;;;;;;5066296;28;20309;-83
2024/03/18 11:55:29;;;;;;;12.20;6.40;;;11.20;1.00;;;;;;5054422;28;20262;-83
2024/03/18 11:57:56;;;;;;;10.57;6.60;;;11.30;1.00;;;;;;5044198;28;20310;-83
2024/03/18 12:00:23;;;;;;;15.73;7.57;;;11.20;1.00;;;;;;5057545;28;20278;-82
2024/03/18 12:02:51;;;;;;;10.67;6.80;;;11.30;1.00;;;;;;5051140;28;20277;-83
2024/03/18 12:05:18;;;;;;;15.40;6.70;;;11.10;1.00;;;;;;5054133;28;20203;-83
2024/03/18 12:07:45;;;;;;;11.10;6.23;;;11.20;1.00;;;;;;5059849;28;20250;-82
2024/03/18 12:10:18;;;;;;;11.00;6.47;;;11.20;1.00;;;;;;5063716;28;20195;-82
2024/03/18 12:12:45;;;;;;;11.77;5.90;;;11.10;1.00;;;;;;5062589;28;20226;-82
2024/03/18 12:15:13;;;;;;;12.77;5.20;;;11.00;1.00;;;;;;5063163;28;20234;-82
2024/03/18 12:17:40;;;;;;;12.23;6.33;;;10.90;1.00;;;;;;5064343;28;20234;-82
2024/03/18 12:20:22;;;;;;;7.97;5.60;;;11.00;1.00;;;;;;5053898;28;20697;-82
2024/03/18 12:22:57;;;;;;;20.83;6.77;;;11.00;1.00;;;;;;5054227;28;20405;-82
2024/03/18 12:30:56;;;;;;;12.07;5.50;;;11.10;1.00;;;;;;5042448;28;20341;-82
2024/03/18 12:33:23;;;;;;;9.67;5.83;;;11.00;1.00;;;;;;5060337;28;20549;-82
2024/03/18 12:35:52;;;;;;;12.17;6.20;;;11.10;1.00;;;;;;5064020;28;20255;-81
2024/03/18 12:38:19;;;;;;;13.23;5.60;;;11.10;1.00;;;;;;5064469;28;20199;-82
2024/03/18 12:40:46;;;;;;;13.30;5.80;;;11.10;1.00;;;;;;5064700;28;20221;-83
2024/03/18 12:43:13;;;;;;;10.70;5.70;;;11.10;1.00;;;;;;5065134;28;20199;-82
2024/03/18 12:45:40;;;;;;;11.53;5.73;;;11.10;1.00;;;;;;5058055;28;20635;-82
2024/03/18 12:48:10;;;;;;;10.93;5.23;;;11.20;1.00;;;;;;5059211;28;20264;-82
2024/03/18 12:50:37;;;;;;;12.93;5.33;;;11.30;1.00;;;;;;5056420;28;20234;-82
2024/03/18 12:53:10;;;;;;;10.07;6.10;;;11.30;1.00;;;;;;5050330;28;20234;-82
2024/03/18 12:55:37;;;;;;;11.90;5.97;;;11.40;1.00;;;;;;5051067;28;20211;-81
2024/03/18 12:58:05;;;;;;;12.10;6.33;;;11.30;1.00;;;;;;5058016;28;20230;-83
2024/03/18 13:00:32;;;;;;;11.93;5.37;;;11.40;1.00;;;;;;5053120;28;20222;-82
2024/03/18 13:02:59;;;;;;;13.63;5.87;;;11.20;1.00;;;;;;5066475;28;20309;-83
2024/03/18 13:05:27;;;;;;;9.77;5.33;;;11.40;1.00;;;;;;5056065;28;20210;-82
2024/03/18 13:07:54;;;;;;;10.20;6.07;;;11.40;1.00;;;;;;5061574;28;20216;-81